createdAt,value
2022-09-12T00:01:27.055Z,16.40
2022-09-12T00:03:58.944Z,16.30
2022-09-12T00:06:29.537Z,16.40
2022-09-12T00:08:58.715Z,16.30
2022-09-12T00:11:26.049Z,16.30
2022-09-12T00:13:57.204Z,16.20
2022-09-12T00:16:26.208Z,16.20
2022-09-12T00:18:53.544Z,16.20
2022-09-12T00:21:21.589Z,16.20
2022-09-12T00:23:48.795Z,16.20
2022-09-12T00:26:17.113Z,16.00
2022-09-12T00:28:44.994Z,16.00
2022-09-12T00:31:20.400Z,16.00
2022-09-12T00:33:47.309Z,16.00
2022-09-12T00:36:16.846Z,15.90
2022-09-12T00:38:44.201Z,15.90
2022-09-12T00:41:18.938Z,15.90
2022-09-12T00:43:51.931Z,15.70
2022-09-12T00:46:36.310Z,15.60
2022-09-12T00:49:49.704Z,15.60
2022-09-12T00:52:25.852Z,15.60
2022-09-12T00:54:57.904Z,15.60
2022-09-12T00:57:35.531Z,15.60
2022-09-12T01:00:16.396Z,15.60
2022-09-12T01:02:46.192Z,15.50
2022-09-12T01:05:13.752Z,15.50
2022-09-12T01:07:41.059Z,15.50
2022-09-12T01:10:09.671Z,15.50
2022-09-12T01:12:39.308Z,15.50
2022-09-12T01:15:07.175Z,15.50
2022-09-12T01:17:59.384Z,15.50
2022-09-12T01:20:52.948Z,15.50
2022-09-12T01:23:42.640Z,15.40
2022-09-12T01:26:33.928Z,15.40
2022-09-12T01:29:25.439Z,15.30
2022-09-12T01:32:14.514Z,15.20
2022-09-12T01:34:53.675Z,15.10
2022-09-12T01:37:54.931Z,15.10
2022-09-12T01:40:42.767Z,15.10
2022-09-12T01:43:38.911Z,15.10
2022-09-12T01:46:17.575Z,15.00
2022-09-12T01:49:00.088Z,15.10
2022-09-12T01:51:37.316Z,15.00
2022-09-12T01:54:09.733Z,15.00
2022-09-12T01:56:39.995Z,14.90
2022-09-12T01:59:24.868Z,14.90
2022-09-12T02:02:09.757Z,14.80
2022-09-12T02:04:51.434Z,14.80
2022-09-12T02:07:38.828Z,14.80
2022-09-12T02:10:22.463Z,14.70
2022-09-12T02:13:01.313Z,14.70
2022-09-12T02:15:34.980Z,14.70
2022-09-12T02:18:05.723Z,14.70
2022-09-12T02:20:47.908Z,14.70
2022-09-12T02:23:26.405Z,14.60
2022-09-12T02:25:57.850Z,14.60
2022-09-12T02:28:35.300Z,14.60
2022-09-12T02:31:22.966Z,14.60
2022-09-12T02:33:56.529Z,14.50
2022-09-12T02:36:28.842Z,14.40
2022-09-12T02:38:56.040Z,14.40
2022-09-12T02:41:23.111Z,14.30
2022-09-12T02:43:51.509Z,14.30
2022-09-12T02:46:26.941Z,14.30
2022-09-12T02:48:54.630Z,14.30
2022-09-12T02:51:23.784Z,14.30
2022-09-12T02:53:50.835Z,14.20
2022-09-12T02:56:25.436Z,14.10
2022-09-12T02:58:52.864Z,14.10
2022-09-12T03:01:36.040Z,14.10
2022-09-12T03:04:23.636Z,14.10
2022-09-12T03:07:14.143Z,14.10
2022-09-12T03:09:57.888Z,14.10
2022-09-12T03:12:45.786Z,14.00
2022-09-12T03:15:43.412Z,13.90
2022-09-12T03:18:28.445Z,13.80
2022-09-12T03:21:15.000Z,13.80
2022-09-12T03:24:16.092Z,13.80
2022-09-12T03:26:56.272Z,13.80
2022-09-12T03:29:26.179Z,13.80
2022-09-12T03:31:55.340Z,13.90
2022-09-12T03:34:23.152Z,13.90
2022-09-12T03:36:50.312Z,13.80
2022-09-12T03:39:17.996Z,13.90
2022-09-12T03:41:44.647Z,13.80
2022-09-12T03:44:11.177Z,13.80
2022-09-12T03:46:37.824Z,13.80
2022-09-12T03:49:04.635Z,13.80
2022-09-12T03:51:31.229Z,13.80
2022-09-12T03:53:57.816Z,13.80
2022-09-12T03:56:26.642Z,13.80
2022-09-12T03:58:53.159Z,13.80
2022-09-12T04:01:20.508Z,13.80
2022-09-12T04:03:50.633Z,13.80
2022-09-12T04:06:20.908Z,13.80
2022-09-12T04:08:52.912Z,13.80
2022-09-12T04:11:21.024Z,13.80
2022-09-12T04:13:48.508Z,13.80
2022-09-12T04:16:17.244Z,13.70
2022-09-12T04:18:44.714Z,13.70
2022-09-12T04:21:14.568Z,13.70
2022-09-12T04:23:41.383Z,13.70
2022-09-12T04:26:08.816Z,13.60
2022-09-12T04:28:37.698Z,13.60
2022-09-12T04:31:07.456Z,13.60
2022-09-12T04:33:35.707Z,13.50
2022-09-12T04:36:12.361Z,13.50
2022-09-12T04:38:40.491Z,13.40
2022-09-12T04:41:18.955Z,13.40
2022-09-12T04:43:46.965Z,13.30
2022-09-12T04:46:16.035Z,13.30
2022-09-12T04:48:43.682Z,13.30
2022-09-12T04:51:11.988Z,13.30
2022-09-12T04:53:38.966Z,13.40
2022-09-12T04:56:07.912Z,13.40
2022-09-12T04:58:35.083Z,13.30
2022-09-12T05:01:10.498Z,13.30
2022-09-12T05:03:40.675Z,13.30
2022-09-12T05:06:08.841Z,13.30
2022-09-12T05:08:35.738Z,13.30
2022-09-12T05:11:07.584Z,13.30
2022-09-12T05:13:34.336Z,13.30
2022-09-12T05:16:02.456Z,13.30
2022-09-12T05:18:31.164Z,13.30
2022-09-12T05:21:00.214Z,13.30
2022-09-12T05:23:27.638Z,13.30
2022-09-12T05:25:56.352Z,13.30
2022-09-12T05:28:23.559Z,13.40
2022-09-12T05:31:04.126Z,13.30
2022-09-12T05:33:31.968Z,13.30
2022-09-12T05:35:58.936Z,13.30
2022-09-12T05:38:25.957Z,13.40
2022-09-12T05:40:52.511Z,13.40
2022-09-12T05:43:20.211Z,13.40
2022-09-12T05:45:46.840Z,13.30
2022-09-12T05:48:13.520Z,13.40
2022-09-12T05:50:40.280Z,13.40
2022-09-12T05:53:08.460Z,13.40
2022-09-12T05:55:37.919Z,13.50
2022-09-12T05:58:04.484Z,13.50
2022-09-12T06:00:33.561Z,13.60
2022-09-12T06:03:01.366Z,13.70
2022-09-12T06:05:27.895Z,13.70
2022-09-12T06:07:54.384Z,13.80
2022-09-12T06:10:22.176Z,13.90
2022-09-12T06:12:48.792Z,14.00
2022-09-12T06:15:16.456Z,14.10
2022-09-12T06:17:43.063Z,14.20
2022-09-12T06:20:10.227Z,14.30
2022-09-12T06:22:36.796Z,14.30
2022-09-12T06:25:03.649Z,14.40
2022-09-12T06:27:30.219Z,14.50
2022-09-12T06:29:56.724Z,14.50
2022-09-12T06:32:23.279Z,14.60
2022-09-12T06:34:50.736Z,14.60
2022-09-12T06:37:17.286Z,14.70
2022-09-12T06:39:43.886Z,14.80
2022-09-12T06:42:10.577Z,14.80
2022-09-12T06:44:37.295Z,14.90
2022-09-12T06:47:04.262Z,15.00
2022-09-12T06:49:31.740Z,15.10
2022-09-12T06:51:58.324Z,15.10
2022-09-12T06:54:26.346Z,15.20
2022-09-12T06:56:52.924Z,15.30
2022-09-12T06:59:19.908Z,15.30
2022-09-12T07:01:46.590Z,15.40
2022-09-12T07:04:13.436Z,15.50
2022-09-12T07:06:42.777Z,15.60
2022-09-12T07:09:13.067Z,15.60
2022-09-12T07:11:41.562Z,15.70
2022-09-12T07:14:10.340Z,15.70
2022-09-12T07:16:37.428Z,15.70
2022-09-12T07:19:06.609Z,15.80
2022-09-12T07:21:36.317Z,15.90
2022-09-12T07:24:04.080Z,16.00
2022-09-12T07:26:30.697Z,16.10
2022-09-12T07:29:13.218Z,16.10
2022-09-12T07:31:46.009Z,16.20
2022-09-12T07:34:12.848Z,16.40
2022-09-12T07:36:39.555Z,16.40
2022-09-12T07:39:06.156Z,16.50
2022-09-12T07:41:35.801Z,16.50
2022-09-12T07:44:03.452Z,16.60
2022-09-12T07:46:31.569Z,16.70
2022-09-12T07:48:59.643Z,16.70
2022-09-12T07:51:27.933Z,16.90
2022-09-12T07:53:54.859Z,17.00
2022-09-12T07:59:13.530Z,17.20
2022-09-12T08:01:41.647Z,17.40
2022-09-12T08:04:08.311Z,17.50
2022-09-12T08:06:36.351Z,17.60
2022-09-12T08:09:03.717Z,17.70
2022-09-12T08:11:30.691Z,17.80
2022-09-12T08:13:58.054Z,17.90
2022-09-12T08:16:27.441Z,17.90
2022-09-12T08:18:54.193Z,18.00
2022-09-12T08:21:23.059Z,18.20
2022-09-12T08:23:55.468Z,18.40
2022-09-12T08:26:23.327Z,18.50
2022-09-12T08:28:50.376Z,18.60
2022-09-12T08:31:19.929Z,18.60
2022-09-12T08:33:46.896Z,18.60
2022-09-12T08:36:21.321Z,18.70
2022-09-12T08:38:49.996Z,18.80
2022-09-12T08:41:37.731Z,19.00
2022-09-12T08:44:42.166Z,19.10
2022-09-12T08:47:45.342Z,19.10
2022-09-12T08:50:17.595Z,19.20
2022-09-12T08:53:13.929Z,19.30
2022-09-12T08:55:46.119Z,19.50
2022-09-12T08:58:22.532Z,19.50
2022-09-12T09:00:50.199Z,19.50
2022-09-12T09:03:46.714Z,19.50
2022-09-12T09:06:50.785Z,19.60
2022-09-12T09:09:45.198Z,19.70
2022-09-12T09:12:11.774Z,19.80
2022-09-12T09:15:01.020Z,19.90
2022-09-12T09:17:43.496Z,20.00
2022-09-12T09:20:36.479Z,20.10
2022-09-12T09:23:27.892Z,20.20
2022-09-12T09:26:15.876Z,20.40
2022-09-12T09:28:52.724Z,20.40
2022-09-12T09:31:22.077Z,20.40
2022-09-12T09:33:51.327Z,20.30
2022-09-12T09:36:25.159Z,20.40
2022-09-12T09:39:12.780Z,20.50
2022-09-12T09:42:10.311Z,20.50
2022-09-12T09:44:37.799Z,20.50
2022-09-12T09:47:05.221Z,20.60
2022-09-12T09:49:34.707Z,20.60
2022-09-12T09:52:04.605Z,20.80
2022-09-12T09:54:39.696Z,20.80
2022-09-12T09:57:35.701Z,20.90
2022-09-12T10:00:27.174Z,21.00
2022-09-12T10:03:30.643Z,21.10
2022-09-12T10:06:05.879Z,21.20
2022-09-12T10:08:36.963Z,21.40
2022-09-12T10:11:18.531Z,21.50
2022-09-12T10:13:52.629Z,21.50
2022-09-12T10:16:22.893Z,21.60
2022-09-12T10:18:52.354Z,21.60
2022-09-12T10:21:32.691Z,21.60
2022-09-12T10:24:39.944Z,21.60
2022-09-12T10:27:32.799Z,21.80
2022-09-12T10:30:07.561Z,21.90
2022-09-12T10:32:48.908Z,21.80
2022-09-12T10:35:21.468Z,21.80
2022-09-12T10:37:53.792Z,21.70
2022-09-12T10:40:41.208Z,21.80
2022-09-12T10:43:38.667Z,21.80
2022-09-12T10:46:23.547Z,21.80
2022-09-12T10:48:52.780Z,21.90
2022-09-12T10:51:25.270Z,22.00
2022-09-12T10:53:56.446Z,22.10
2022-09-12T10:56:33.675Z,22.20
2022-09-12T10:59:13.359Z,22.10
2022-09-12T11:01:45.130Z,22.10
2022-09-12T11:04:28.528Z,22.20
2022-09-12T11:07:19.489Z,22.20
2022-09-12T11:10:09.511Z,22.50
2022-09-12T11:13:02.932Z,22.40
2022-09-12T11:15:44.515Z,22.40
2022-09-12T11:18:38.388Z,22.50
2022-09-12T11:21:45.037Z,22.60
2022-09-12T11:24:38.013Z,22.70
2022-09-12T11:27:35.879Z,22.80
2022-09-12T11:30:09.180Z,22.70
2022-09-12T11:33:24.378Z,22.60
2022-09-12T11:35:55.140Z,22.30
2022-09-12T11:38:37.351Z,22.20
2022-09-12T11:41:07.241Z,21.90
2022-09-12T11:43:39.972Z,21.80
2022-09-12T11:46:25.501Z,21.90
2022-09-12T11:48:57.616Z,22.20
2022-09-12T11:51:31.595Z,22.30
2022-09-12T11:54:14.203Z,22.40
2022-09-12T11:56:46.120Z,22.50
2022-09-12T11:59:28.708Z,22.60
2022-09-12T12:01:59.935Z,22.40
2022-09-12T12:04:39.057Z,22.40
2022-09-12T12:07:09.216Z,22.50
2022-09-12T12:09:44.018Z,22.70
2022-09-12T12:12:18.721Z,22.90
2022-09-12T12:14:48.856Z,22.90
2022-09-12T12:17:18.623Z,22.90
2022-09-12T12:19:46.967Z,23.00
2022-09-12T12:22:25.431Z,23.20
2022-09-12T12:25:28.872Z,23.40
2022-09-12T12:28:01.343Z,23.60
2022-09-12T12:30:30.922Z,23.90
2022-09-12T12:33:00.867Z,24.00
2022-09-12T12:35:37.152Z,23.90
2022-09-12T12:38:05.580Z,23.90
2022-09-12T12:40:32.720Z,23.80
2022-09-12T12:43:02.453Z,23.80
2022-09-12T12:45:29.057Z,23.60
2022-09-12T12:47:59.953Z,23.60
2022-09-12T12:50:31.335Z,23.70
2022-09-12T12:53:02.982Z,23.80
2022-09-12T12:55:41.540Z,23.80
2022-09-12T12:58:37.116Z,23.90
2022-09-12T13:01:09.659Z,24.00
2022-09-12T13:03:37.356Z,24.10
2022-09-12T13:06:07.627Z,24.00
2022-09-12T13:08:38.674Z,23.80
2022-09-12T13:11:16.909Z,23.70
2022-09-12T13:14:28.020Z,23.70
2022-09-12T13:16:59.808Z,23.80
2022-09-12T13:19:35.189Z,23.80
2022-09-12T13:22:05.375Z,23.80
2022-09-12T13:24:32.177Z,23.80
2022-09-12T13:26:59.348Z,23.80
2022-09-12T13:29:27.756Z,23.80
2022-09-12T13:31:56.462Z,23.80
2022-09-12T13:37:58.671Z,23.70
2022-09-12T13:41:14.256Z,23.60
2022-09-12T13:43:46.765Z,23.70
2022-09-12T13:46:22.312Z,23.80
2022-09-12T13:48:49.140Z,24.00
2022-09-12T13:51:26.247Z,24.10
2022-09-12T13:53:56.164Z,24.10
2022-09-12T13:56:22.748Z,24.10
2022-09-12T13:58:57.758Z,24.00
2022-09-12T14:01:37.832Z,24.10
2022-09-12T14:04:35.861Z,24.10
2022-09-12T14:07:11.295Z,24.20
2022-09-12T14:09:43.920Z,24.20
2022-09-12T14:12:33.357Z,24.20
2022-09-12T14:15:00.307Z,24.20
2022-09-12T14:17:39.340Z,24.20
2022-09-12T14:20:12.052Z,24.40
2022-09-12T14:22:39.473Z,24.60
2022-09-12T14:25:10.714Z,24.90
2022-09-12T14:27:45.673Z,24.80
2022-09-12T14:30:33.291Z,25.00
2022-09-12T14:33:18.482Z,24.70
2022-09-12T14:35:50.343Z,24.70
2022-09-12T14:38:16.805Z,24.90
2022-09-12T14:40:48.523Z,24.80
2022-09-12T14:43:26.068Z,24.30
2022-09-12T14:45:59.676Z,24.40
2022-09-12T14:48:31.883Z,24.80
2022-09-12T14:50:59.047Z,25.10
2022-09-12T14:53:35.610Z,25.30
2022-09-12T14:56:11.724Z,25.30
2022-09-12T14:58:41.445Z,25.40
2022-09-12T15:01:08.199Z,25.40
2022-09-12T15:03:49.955Z,25.40
2022-09-12T15:06:36.145Z,25.40
2022-09-12T15:09:08.156Z,25.50
2022-09-12T15:11:34.702Z,25.50
2022-09-12T15:14:12.928Z,25.50
2022-09-12T15:16:39.637Z,25.50
2022-09-12T15:19:06.164Z,25.40
2022-09-12T15:21:32.848Z,25.40
2022-09-12T15:23:59.384Z,25.50
2022-09-12T15:26:30.472Z,25.50
2022-09-12T15:28:57.544Z,25.60
2022-09-12T15:31:25.558Z,25.70
2022-09-12T15:33:52.540Z,25.80
2022-09-12T15:36:21.172Z,25.90
2022-09-12T15:38:48.424Z,26.10
2022-09-12T15:41:18.064Z,26.20
2022-09-12T15:43:45.548Z,26.40
2022-09-12T15:46:13.841Z,26.00
2022-09-12T15:48:40.590Z,25.90
2022-09-12T15:51:15.856Z,25.90
2022-09-12T15:53:43.381Z,25.80
2022-09-12T15:56:10.068Z,25.80
2022-09-12T15:58:49.803Z,26.00
2022-09-12T16:01:24.263Z,26.20
2022-09-12T16:03:51.039Z,26.40
2022-09-12T16:06:17.765Z,26.50
2022-09-12T16:08:44.351Z,26.60
2022-09-12T16:11:23.129Z,26.60
2022-09-12T16:13:51.348Z,26.70
2022-09-12T16:16:17.898Z,26.80
2022-09-12T16:18:44.467Z,26.80
2022-09-12T16:21:14.898Z,26.90
2022-09-12T16:23:46.201Z,26.90
2022-09-12T16:26:13.093Z,26.90
2022-09-12T16:28:40.193Z,26.90
2022-09-12T16:31:08.818Z,26.80
2022-09-12T16:33:37.340Z,26.70
2022-09-12T16:36:09.618Z,26.60
2022-09-12T16:38:44.455Z,26.40
2022-09-12T16:41:11.898Z,26.30
2022-09-12T16:43:38.851Z,26.10
2022-09-12T16:46:08.635Z,26.00
2022-09-12T16:48:35.962Z,26.00
2022-09-12T16:51:06.705Z,25.90
2022-09-12T16:53:35.595Z,25.80
2022-09-12T16:56:02.531Z,25.70
2022-09-12T16:58:32.775Z,25.60
2022-09-12T17:01:04.332Z,25.60
2022-09-12T17:03:32.239Z,25.60
2022-09-12T17:06:04.809Z,25.60
2022-09-12T17:08:34.228Z,25.50
2022-09-12T17:11:09.618Z,25.50
2022-09-12T17:14:00.262Z,25.50
2022-09-12T17:16:23.643Z,25.50
2022-09-12T17:18:52.088Z,25.40
2022-09-12T17:21:19.204Z,25.30
2022-09-12T17:23:46.144Z,25.30
2022-09-12T17:26:13.113Z,25.30
2022-09-12T17:28:40.227Z,25.30
2022-09-12T17:31:09.380Z,25.20
2022-09-12T17:33:36.693Z,25.30
2022-09-12T17:36:05.194Z,25.20
2022-09-12T17:38:34.627Z,25.10
2022-09-12T17:41:17.450Z,25.00
2022-09-12T17:43:45.940Z,25.00
2022-09-12T17:46:13.117Z,24.90
2022-09-12T17:48:39.856Z,24.90
2022-09-12T17:51:11.796Z,24.90
2022-09-12T17:53:38.344Z,24.80
2022-09-12T17:56:06.480Z,24.70
2022-09-12T17:58:33.974Z,24.70
2022-09-12T18:01:29.208Z,24.70
2022-09-12T18:03:57.660Z,24.60
2022-09-12T18:06:24.690Z,24.60
2022-09-12T18:08:51.603Z,24.60
2022-09-12T18:14:14.000Z,24.50
2022-09-12T18:16:41.282Z,24.50
2022-09-12T18:19:07.995Z,24.50
2022-09-12T18:21:34.556Z,24.30
2022-09-12T18:24:01.605Z,24.20
2022-09-12T18:26:29.087Z,24.10
2022-09-12T18:28:55.852Z,24.10
2022-09-12T18:31:25.014Z,24.00
2022-09-12T18:33:51.700Z,24.00
2022-09-12T18:36:19.288Z,24.00
2022-09-12T18:38:46.487Z,23.90
2022-09-12T18:41:15.691Z,23.80
2022-09-12T18:43:42.435Z,23.80
2022-09-12T18:46:17.152Z,23.70
2022-09-12T18:48:44.944Z,23.60
2022-09-12T18:54:14.061Z,23.40
2022-09-12T18:56:43.436Z,23.40
2022-09-12T18:59:12.696Z,23.40
2022-09-12T19:01:39.396Z,23.40
2022-09-12T19:04:07.815Z,23.40
2022-09-12T19:06:39.786Z,23.40
2022-09-12T19:09:08.420Z,23.40
2022-09-12T19:11:36.886Z,23.40
2022-09-12T19:14:03.820Z,23.30
2022-09-12T19:16:30.815Z,23.30
2022-09-12T19:18:58.704Z,23.20
2022-09-12T19:21:28.221Z,23.10
2022-09-12T19:24:03.850Z,23.00
2022-09-12T19:26:32.071Z,23.00
2022-09-12T19:28:58.975Z,22.90
2022-09-12T19:31:25.957Z,22.80
2022-09-12T19:33:52.758Z,22.80
2022-09-12T19:36:43.838Z,22.70
2022-09-12T19:39:08.561Z,22.70
2022-09-12T19:41:35.764Z,22.70
2022-09-12T19:44:03.932Z,22.50
2022-09-12T19:46:30.573Z,22.40
2022-09-12T19:48:57.176Z,22.40
2022-09-12T19:51:24.110Z,22.40
2022-09-12T19:53:51.139Z,22.30
2022-09-12T19:56:17.695Z,22.30
2022-09-12T19:58:46.567Z,22.20
2022-09-12T20:01:29.862Z,22.10
2022-09-12T20:03:57.579Z,22.10
2022-09-12T20:06:24.746Z,22.00
2022-09-12T20:08:51.955Z,22.00
2022-09-12T20:11:20.703Z,22.00
2022-09-12T20:13:47.501Z,22.00
2022-09-12T20:16:22.127Z,22.00
2022-09-12T20:18:53.938Z,22.00
2022-09-12T20:21:26.590Z,21.90
2022-09-12T20:23:53.284Z,22.00
2022-09-12T20:26:20.296Z,21.90
2022-09-12T20:28:47.361Z,21.90
2022-09-12T20:31:16.183Z,21.90
2022-09-12T20:33:43.554Z,21.80
2022-09-12T20:36:15.934Z,21.80
2022-09-12T20:38:47.732Z,21.80
2022-09-12T20:41:14.559Z,21.80
2022-09-12T20:43:41.154Z,21.90
2022-09-12T20:46:12.127Z,21.80
2022-09-12T20:48:39.219Z,21.70
2022-09-12T20:51:06.846Z,21.70
2022-09-12T20:53:35.270Z,21.60
2022-09-12T20:56:03.048Z,21.50
2022-09-12T20:58:29.679Z,21.40
2022-09-12T21:00:56.784Z,21.30
2022-09-12T21:03:23.485Z,21.20
2022-09-12T21:05:50.078Z,21.30
2022-09-12T21:08:16.842Z,21.20
2022-09-12T21:10:44.414Z,21.20
2022-09-12T21:13:12.455Z,21.00
2022-09-12T21:15:40.221Z,21.00
2022-09-12T21:18:07.305Z,21.00
2022-09-12T21:20:34.376Z,20.90
2022-09-12T21:23:01.171Z,20.90
2022-09-12T21:25:29.028Z,20.90
2022-09-12T21:27:55.695Z,20.90
2022-09-12T21:30:22.692Z,20.80
2022-09-12T21:32:49.285Z,20.70
2022-09-12T21:35:15.986Z,20.60
2022-09-12T21:37:42.730Z,20.50
2022-09-12T21:40:09.783Z,20.40
2022-09-12T21:42:36.531Z,20.40
2022-09-12T21:45:03.333Z,20.30
2022-09-12T21:47:30.235Z,20.30
2022-09-12T21:49:57.533Z,20.30
2022-09-12T21:52:24.130Z,20.40
2022-09-12T21:54:50.733Z,20.30
2022-09-12T21:57:17.492Z,20.20
2022-09-12T21:59:44.210Z,20.30
2022-09-12T22:02:12.289Z,20.30
2022-09-12T22:04:39.014Z,20.30
2022-09-12T22:07:05.739Z,20.30
2022-09-12T22:09:34.316Z,20.20
2022-09-12T22:12:02.281Z,20.30
2022-09-12T22:14:29.477Z,20.30
2022-09-12T22:16:56.688Z,20.30
2022-09-12T22:19:23.262Z,20.20
2022-09-12T22:22:08.746Z,20.10
2022-09-12T22:24:35.365Z,20.00
2022-09-12T22:27:04.124Z,20.10
2022-09-12T22:29:30.735Z,20.10
2022-09-12T22:31:58.962Z,20.20
2022-09-12T22:34:26.445Z,20.10
2022-09-12T22:36:53.184Z,20.20
2022-09-12T22:39:19.973Z,20.20
2022-09-12T22:41:46.734Z,20.20
2022-09-12T22:44:13.323Z,20.30
2022-09-12T22:46:40.155Z,20.20
2022-09-12T22:49:07.439Z,20.20
2022-09-12T22:51:34.143Z,20.20
2022-09-12T22:54:00.660Z,20.20
2022-09-12T22:56:27.691Z,20.20
2022-09-12T22:58:54.314Z,20.20
2022-09-12T23:01:21.249Z,20.20
2022-09-12T23:03:48.046Z,20.20
2022-09-12T23:06:14.755Z,20.20
2022-09-12T23:08:41.360Z,20.10
2022-09-12T23:11:14.110Z,20.10
2022-09-12T23:13:45.866Z,20.20
2022-09-12T23:16:21.266Z,20.10
2022-09-12T23:18:48.929Z,20.10
2022-09-12T23:21:18.193Z,20.10
2022-09-12T23:23:45.009Z,20.10
2022-09-12T23:26:15.479Z,20.10
2022-09-12T23:28:47.413Z,20.20
2022-09-12T23:31:14.213Z,20.20
2022-09-12T23:33:40.780Z,20.20
2022-09-12T23:36:14.158Z,20.20
2022-09-12T23:38:42.828Z,20.20
2022-09-12T23:41:09.725Z,20.20
2022-09-12T23:43:36.763Z,20.10
2022-09-12T23:46:04.580Z,20.10
2022-09-12T23:48:31.992Z,20.20
2022-09-12T23:50:59.210Z,20.20
2022-09-12T23:53:26.276Z,20.20
2022-09-12T23:55:54.106Z,20.20
2022-09-12T23:58:22.439Z,20.10
